sensor_id;sensor_type;location;lat;lon;timestamp;pressure;altitude;pressure_sealevel;temperature;humidity
48848;BME280;75039;51.970;5.660;2024-02-21T00:02:20;102216.84;;;13.53;60.56
48848;BME280;75039;51.970;5.660;2024-02-21T00:04:47;102211.44;;;13.53;60.76
48848;BME280;75039;51.970;5.660;2024-02-21T00:07:14;102216.84;;;13.53;60.43
48848;BME280;75039;51.970;5.660;2024-02-21T00:09:41;102209.50;;;13.55;60.77
48848;BME280;75039;51.970;5.660;2024-02-21T00:12:08;102196.88;;;13.56;60.24
48848;BME280;75039;51.970;5.660;2024-02-21T00:14:35;102205.84;;;13.56;60.47
48848;BME280;75039;51.970;5.660;2024-02-21T00:17:02;102201.41;;;13.55;60.45
48848;BME280;75039;51.970;5.660;2024-02-21T00:19:28;102193.31;;;13.55;60.16
48848;BME280;75039;51.970;5.660;2024-02-21T00:21:55;102190.63;;;13.55;60.38
48848;BME280;75039;51.970;5.660;2024-02-21T00:24:22;102189.75;;;13.55;60.59
48848;BME280;75039;51.970;5.660;2024-02-21T00:26:48;102185.22;;;13.55;60.59
48848;BME280;75039;51.970;5.660;2024-02-21T00:29:15;102181.66;;;13.55;60.61
48848;BME280;75039;51.970;5.660;2024-02-21T00:31:42;102170.00;;;13.54;60.53
48848;BME280;75039;51.970;5.660;2024-02-21T00:34:09;102174.53;;;13.54;60.11
48848;BME280;75039;51.970;5.660;2024-02-21T00:36:38;102161.91;;;13.54;60.53
48848;BME280;75039;51.970;5.660;2024-02-21T00:39:05;102170.00;;;13.54;60.22
48848;BME280;75039;51.970;5.660;2024-02-21T00:41:32;102169.13;;;13.54;60.54
48848;BME280;75039;51.970;5.660;2024-02-21T00:43:59;102163.81;;;13.52;60.50
48848;BME280;75039;51.970;5.660;2024-02-21T00:46:26;102162.00;;;13.53;60.57
48848;BME280;75039;51.970;5.660;2024-02-21T00:48:53;102165.56;;;13.53;60.41
48848;BME280;75039;51.970;5.660;2024-02-21T00:51:19;102158.31;;;13.54;60.46
48848;BME280;75039;51.970;5.660;2024-02-21T00:53:46;102155.72;;;13.52;60.34
48848;BME280;75039;51.970;5.660;2024-02-21T00:56:13;102146.66;;;13.53;60.21
48848;BME280;75039;51.970;5.660;2024-02-21T00:58:40;102145.81;;;13.53;60.14
48848;BME280;75039;51.970;5.660;2024-02-21T01:01:07;102139.53;;;13.52;60.24
48848;BME280;75039;51.970;5.660;2024-02-21T01:03:33;102138.56;;;13.53;60.18
48848;BME280;75039;51.970;5.660;2024-02-21T01:06:00;102134.03;;;13.54;60.32
48848;BME280;75039;51.970;5.660;2024-02-21T01:08:27;102135.88;;;13.53;59.96
48848;BME280;75039;51.970;5.660;2024-02-21T01:10:53;102148.41;;;13.54;60.11
48848;BME280;75039;51.970;5.660;2024-02-21T01:13:20;102150.34;;;13.52;59.96
48848;BME280;75039;51.970;5.660;2024-02-21T01:15:47;102148.50;;;13.53;60.39
48848;BME280;75039;51.970;5.660;2024-02-21T01:18:14;102135.00;;;13.53;60.47
48848;BME280;75039;51.970;5.660;2024-02-21T01:20:41;102132.22;;;13.54;60.23
48848;BME280;75039;51.970;5.660;2024-02-21T01:23:07;102146.66;;;13.53;60.04
48848;BME280;75039;51.970;5.660;2024-02-21T01:25:34;102153.03;;;13.52;60.20
48848;BME280;75039;51.970;5.660;2024-02-21T01:28:01;102150.34;;;13.52;59.86
48848;BME280;75039;51.970;5.660;2024-02-21T01:30:28;102156.69;;;13.51;60.30
48848;BME280;75039;51.970;5.660;2024-02-21T01:32:55;102163.06;;;13.50;59.95
48848;BME280;75039;51.970;5.660;2024-02-21T01:35:21;102151.47;;;13.48;60.00
48848;BME280;75039;51.970;5.660;2024-02-21T01:37:48;102150.63;;;13.48;60.18
48848;BME280;75039;51.970;5.660;2024-02-21T01:40:15;102151.59;;;13.47;60.10
48848;BME280;75039;51.970;5.660;2024-02-21T01:42:42;102143.47;;;13.47;60.11
48848;BME280;75039;51.970;5.660;2024-02-21T01:45:09;102133.66;;;13.46;60.06
48848;BME280;75039;51.970;5.660;2024-02-21T01:47:37;102133.75;;;13.44;60.08
48848;BME280;75039;51.970;5.660;2024-02-21T01:50:04;102132.88;;;13.44;60.30
48848;BME280;75039;51.970;5.660;2024-02-21T01:52:31;102130.19;;;13.44;60.13
48848;BME280;75039;51.970;5.660;2024-02-21T01:54:59;102138.28;;;13.44;60.01
48848;BME280;75039;51.970;5.660;2024-02-21T01:57:26;102124.78;;;13.44;59.89
48848;BME280;75039;51.970;5.660;2024-02-21T01:59:55;102118.53;;;13.43;60.08
48848;BME280;75039;51.970;5.660;2024-02-21T02:02:22;102110.44;;;13.43;60.19
48848;BME280;75039;51.970;5.660;2024-02-21T02:04:49;102103.19;;;13.44;59.72
48848;BME280;75039;51.970;5.660;2024-02-21T02:07:15;102111.28;;;13.44;60.17
48848;BME280;75039;51.970;5.660;2024-02-21T02:09:43;102115.81;;;13.43;60.00
48848;BME280;75039;51.970;5.660;2024-02-21T02:12:10;102105.03;;;13.43;60.25
48848;BME280;75039;51.970;5.660;2024-02-21T02:14:37;102105.13;;;13.42;60.33
48848;BME280;75039;51.970;5.660;2024-02-21T02:17:04;102101.47;;;13.43;60.29
48848;BME280;75039;51.970;5.660;2024-02-21T02:19:30;102096.94;;;13.43;60.25
48848;BME280;75039;51.970;5.660;2024-02-21T02:22:10;102102.44;;;13.42;60.23
48848;BME280;75039;51.970;5.660;2024-02-21T02:24:40;102105.13;;;13.42;59.81
48848;BME280;75039;51.970;5.660;2024-02-21T02:27:07;102087.19;;;13.41;60.16
48848;BME280;75039;51.970;5.660;2024-02-21T02:29:34;102082.75;;;13.40;59.65
48848;BME280;75039;51.970;5.660;2024-02-21T02:32:01;102077.38;;;13.40;59.88
48848;BME280;75039;51.970;5.660;2024-02-21T02:34:27;102065.72;;;13.39;60.09
48848;BME280;75039;51.970;5.660;2024-02-21T02:36:54;102047.78;;;13.38;59.94
48848;BME280;75039;51.970;5.660;2024-02-21T02:39:21;102059.50;;;13.37;60.15
48848;BME280;75039;51.970;5.660;2024-02-21T02:41:48;102063.19;;;13.36;60.13
48848;BME280;75039;51.970;5.660;2024-02-21T02:44:14;102061.34;;;13.36;59.90
48848;BME280;75039;51.970;5.660;2024-02-21T02:46:41;102057.78;;;13.36;60.06
48848;BME280;75039;51.970;5.660;2024-02-21T02:49:07;102059.59;;;13.35;60.13
48848;BME280;75039;51.970;5.660;2024-02-21T02:51:34;102067.72;;;13.35;60.00
48848;BME280;75039;51.970;5.660;2024-02-21T02:54:02;102063.19;;;13.36;59.72
48848;BME280;75039;51.970;5.660;2024-02-21T02:56:29;102066.84;;;13.35;59.91
48848;BME280;75039;51.970;5.660;2024-02-21T02:58:56;102050.66;;;13.35;59.99
48848;BME280;75039;51.970;5.660;2024-02-21T03:01:22;102048.03;;;13.33;60.18
48848;BME280;75039;51.970;5.660;2024-02-21T03:03:49;102048.91;;;13.34;60.06
48848;BME280;75039;51.970;5.660;2024-02-21T03:06:16;102052.47;;;13.34;59.68
48848;BME280;75039;51.970;5.660;2024-02-21T03:08:42;102052.28;;;13.38;59.75
48848;BME280;75039;51.970;5.660;2024-02-21T03:11:10;102039.69;;;13.38;59.90
48848;BME280;75039;51.970;5.660;2024-02-21T03:13:38;102039.75;;;13.36;59.82
48848;BME280;75039;51.970;5.660;2024-02-21T03:16:05;102030.78;;;13.36;59.96
48848;BME280;75039;51.970;5.660;2024-02-21T03:18:32;102037.16;;;13.35;60.13
48848;BME280;75039;51.970;5.660;2024-02-21T03:20:59;102028.19;;;13.34;60.12
48848;BME280;75039;51.970;5.660;2024-02-21T03:23:26;102039.94;;;13.33;59.98
48848;BME280;75039;51.970;5.660;2024-02-21T03:25:52;102034.66;;;13.32;59.71
48848;BME280;75039;51.970;5.660;2024-02-21T03:28:19;102031.84;;;13.33;59.84
48848;BME280;75039;51.970;5.660;2024-02-21T03:30:46;102031.97;;;13.32;59.79
48848;BME280;75039;51.970;5.660;2024-02-21T03:33:12;102038.31;;;13.31;59.78
48848;BME280;75039;51.970;5.660;2024-02-21T03:35:39;102032.16;;;13.29;60.30
48848;BME280;75039;51.970;5.660;2024-02-21T03:38:06;102033.97;;;13.28;60.30
48848;BME280;75039;51.970;5.660;2024-02-21T03:40:33;102016.16;;;13.26;60.25
48848;BME280;75039;51.970;5.660;2024-02-21T03:42:59;102019.72;;;13.26;60.15
48848;BME280;75039;51.970;5.660;2024-02-21T03:45:26;102013.38;;;13.27;60.00
48848;BME280;75039;51.970;5.660;2024-02-21T03:47:53;102003.53;;;13.26;60.31
48848;BME280;75039;51.970;5.660;2024-02-21T03:50:19;101999.09;;;13.25;60.26
48848;BME280;75039;51.970;5.660;2024-02-21T03:52:46;102007.09;;;13.27;59.82
48848;BME280;75039;51.970;5.660;2024-02-21T03:55:13;101997.28;;;13.26;60.08
48848;BME280;75039;51.970;5.660;2024-02-21T03:57:40;102000.84;;;13.26;60.19
48848;BME280;75039;51.970;5.660;2024-02-21T04:00:07;101994.47;;;13.27;59.97
48848;BME280;75039;51.970;5.660;2024-02-21T04:02:37;101994.47;;;13.27;60.12
48848;BME280;75039;51.970;5.660;2024-02-21T04:05:04;101996.31;;;13.27;59.97
48848;BME280;75039;51.970;5.660;2024-02-21T04:07:32;101998.13;;;13.26;60.24
48848;BME280;75039;51.970;5.660;2024-02-21T04:09:58;101988.41;;;13.24;60.03
48848;BME280;75039;51.970;5.660;2024-02-21T04:12:25;101993.81;;;13.24;60.01
48848;BME280;75039;51.970;5.660;2024-02-21T04:14:52;101996.50;;;13.24;60.39
48848;BME280;75039;51.970;5.660;2024-02-21T04:17:18;101995.75;;;13.22;60.30
48848;BME280;75039;51.970;5.660;2024-02-21T04:19:45;101994.88;;;13.21;60.41
48848;BME280;75039;51.970;5.660;2024-02-21T04:22:12;101989.69;;;13.18;60.29
48848;BME280;75039;51.970;5.660;2024-02-21T04:24:39;101990.63;;;13.17;60.44
48848;BME280;75039;51.970;5.660;2024-02-21T04:27:05;101979.75;;;13.19;60.34
48848;BME280;75039;51.970;5.660;2024-02-21T04:29:32;101981.47;;;13.20;60.54
48848;BME280;75039;51.970;5.660;2024-02-21T04:32:01;101978.97;;;13.17;60.26
48848;BME280;75039;51.970;5.660;2024-02-21T04:34:29;101979.91;;;13.16;60.26
48848;BME280;75039;51.970;5.660;2024-02-21T04:36:56;101972.78;;;13.15;60.50
48848;BME280;75039;51.970;5.660;2024-02-21T04:39:22;101973.75;;;13.14;60.25
48848;BME280;75039;51.970;5.660;2024-02-21T04:41:49;101980.97;;;13.13;60.44
48848;BME280;75039;51.970;5.660;2024-02-21T04:44:15;101974.72;;;13.13;60.07
48848;BME280;75039;51.970;5.660;2024-02-21T04:46:43;101973.84;;;13.12;60.03
48848;BME280;75039;51.970;5.660;2024-02-21T04:49:10;101965.00;;;13.10;60.42
48848;BME280;75039;51.970;5.660;2024-02-21T04:51:37;101964.03;;;13.11;60.50
48848;BME280;75039;51.970;5.660;2024-02-21T04:54:04;101958.72;;;13.10;60.25
48848;BME280;75039;51.970;5.660;2024-02-21T04:56:31;101948.81;;;13.10;60.26
48848;BME280;75039;51.970;5.660;2024-02-21T04:58:57;101946.22;;;13.09;60.52
48848;BME280;75039;51.970;5.660;2024-02-21T05:01:24;101941.69;;;13.09;60.66
48848;BME280;75039;51.970;5.660;2024-02-21T05:03:51;101938.88;;;13.11;60.60
48848;BME280;75039;51.970;5.660;2024-02-21T05:06:18;101933.50;;;13.11;60.39
48848;BME280;75039;51.970;5.660;2024-02-21T05:08:45;101931.75;;;13.10;60.45
48848;BME280;75039;51.970;5.660;2024-02-21T05:11:12;101924.63;;;13.09;60.16
48848;BME280;75039;51.970;5.660;2024-02-21T05:13:39;101928.28;;;13.08;60.21
48848;BME280;75039;51.970;5.660;2024-02-21T05:16:05;101929.34;;;13.05;60.61
48848;BME280;75039;51.970;5.660;2024-02-21T05:18:33;101931.28;;;13.03;60.47
48848;BME280;75039;51.970;5.660;2024-02-21T05:21:00;101931.47;;;13.00;60.56
48848;BME280;75039;51.970;5.660;2024-02-21T05:23:27;101930.53;;;13.01;60.53
48848;BME280;75039;51.970;5.660;2024-02-21T05:25:54;101919.94;;;12.98;60.32
48848;BME280;75039;51.970;5.660;2024-02-21T05:28:20;101917.34;;;12.96;60.45
48848;BME280;75039;51.970;5.660;2024-02-21T05:30:47;101912.91;;;12.95;60.71
48848;BME280;75039;51.970;5.660;2024-02-21T05:33:14;101911.94;;;12.96;60.78
48848;BME280;75039;51.970;5.660;2024-02-21T05:35:48;101908.38;;;12.96;60.39
48848;BME280;75039;51.970;5.660;2024-02-21T05:38:15;101897.59;;;12.96;60.65
48848;BME280;75039;51.970;5.660;2024-02-21T05:40:42;101895.84;;;12.95;60.83
48848;BME280;75039;51.970;5.660;2024-02-21T05:43:09;101895.84;;;12.95;60.87
48848;BME280;75039;51.970;5.660;2024-02-21T05:45:36;101884.22;;;12.94;60.76
48848;BME280;75039;51.970;5.660;2024-02-21T05:48:03;101882.47;;;12.93;60.67
48848;BME280;75039;51.970;5.660;2024-02-21T05:50:30;101883.44;;;12.92;60.48
48848;BME280;75039;51.970;5.660;2024-02-21T05:52:58;101877.19;;;12.92;60.49
48848;BME280;75039;51.970;5.660;2024-02-21T05:55:25;101878.91;;;12.93;60.92
48848;BME280;75039;51.970;5.660;2024-02-21T05:57:53;101866.41;;;12.92;60.74
48848;BME280;75039;51.970;5.660;2024-02-21T06:00:20;101862.84;;;12.91;60.80
48848;BME280;75039;51.970;5.660;2024-02-21T06:02:47;101870.06;;;12.91;60.98
48848;BME280;75039;51.970;5.660;2024-02-21T06:05:14;101859.47;;;12.88;60.66
48848;BME280;75039;51.970;5.660;2024-02-21T06:07:41;101860.44;;;12.87;60.27
48848;BME280;75039;51.970;5.660;2024-02-21T06:10:08;101858.72;;;12.86;60.71
48848;BME280;75039;51.970;5.660;2024-02-21T06:12:35;101851.59;;;12.85;60.58
48848;BME280;75039;51.970;5.660;2024-02-21T06:15:02;101860.63;;;12.84;60.68
48848;BME280;75039;51.970;5.660;2024-02-21T06:17:29;101859.66;;;12.85;60.90
48848;BME280;75039;51.970;5.660;2024-02-21T06:19:56;101856.13;;;12.84;60.96
48848;BME280;75039;51.970;5.660;2024-02-21T06:22:22;101848.03;;;12.84;60.60
48848;BME280;75039;51.970;5.660;2024-02-21T06:24:49;101850.72;;;12.84;60.63
48848;BME280;75039;51.970;5.660;2024-02-21T06:27:16;101852.66;;;12.82;60.69
48848;BME280;75039;51.970;5.660;2024-02-21T06:29:44;101852.66;;;12.82;60.88
48848;BME280;75039;51.970;5.660;2024-02-21T06:32:10;101854.47;;;12.82;60.95
48848;BME280;75039;51.970;5.660;2024-02-21T06:34:37;101851.78;;;12.82;60.93
48848;BME280;75039;51.970;5.660;2024-02-21T06:37:04;101850.81;;;12.83;60.93
48848;BME280;75039;51.970;5.660;2024-02-21T06:39:31;101849.09;;;12.82;60.63
48848;BME280;75039;51.970;5.660;2024-02-21T06:41:58;101856.31;;;12.81;60.64
48848;BME280;75039;51.970;5.660;2024-02-21T06:44:29;101855.34;;;12.82;61.03
48848;BME280;75039;51.970;5.660;2024-02-21T06:46:56;101860.63;;;12.84;60.69
48848;BME280;75039;51.970;5.660;2024-02-21T06:49:22;101855.25;;;12.84;60.84
48848;BME280;75039;51.970;5.660;2024-02-21T06:51:49;101846.28;;;12.83;60.80
48848;BME280;75039;51.970;5.660;2024-02-21T06:54:16;101850.72;;;12.84;60.77
48848;BME280;75039;51.970;5.660;2024-02-21T06:56:42;101856.97;;;12.85;60.98
48848;BME280;75039;51.970;5.660;2024-02-21T06:59:10;101850.72;;;12.84;60.69
48848;BME280;75039;51.970;5.660;2024-02-21T07:01:37;101848.03;;;12.84;60.58
48848;BME280;75039;51.970;5.660;2024-02-21T07:04:04;101846.19;;;12.85;60.78
48848;BME280;75039;51.970;5.660;2024-02-21T07:06:31;101844.38;;;12.85;60.67
48848;BME280;75039;51.970;5.660;2024-02-21T07:09:01;101850.63;;;12.86;61.00
48848;BME280;75039;51.970;5.660;2024-02-21T07:11:28;101838.00;;;12.86;60.70
48848;BME280;75039;51.970;5.660;2024-02-21T07:13:55;101833.47;;;12.87;60.61
48848;BME280;75039;51.970;5.660;2024-02-21T07:16:21;101831.66;;;12.87;60.99
48848;BME280;75039;51.970;5.660;2024-02-21T07:18:48;101830.69;;;12.88;60.82
48848;BME280;75039;51.970;5.660;2024-02-21T07:21:15;101832.50;;;12.88;60.87
48848;BME280;75039;51.970;5.660;2024-02-21T07:23:42;101819.03;;;12.88;60.59
48848;BME280;75039;51.970;5.660;2024-02-21T07:26:09;101819.91;;;12.88;60.45
48848;BME280;75039;51.970;5.660;2024-02-21T07:28:36;101814.41;;;12.90;60.74
48848;BME280;75039;51.970;5.660;2024-02-21T07:31:03;101821.44;;;12.92;60.70
48848;BME280;75039;51.970;5.660;2024-02-21T07:33:29;101812.56;;;12.90;60.65
48848;BME280;75039;51.970;5.660;2024-02-21T07:35:57;101814.41;;;12.90;60.59
48848;BME280;75039;51.970;5.660;2024-02-21T07:38:23;101803.72;;;12.88;60.46
48848;BME280;75039;51.970;5.660;2024-02-21T07:40:50;101808.25;;;12.88;60.69
48848;BME280;75039;51.970;5.660;2024-02-21T07:43:17;101803.72;;;12.88;60.75
48848;BME280;75039;51.970;5.660;2024-02-21T07:45:44;101800.06;;;12.89;60.79
48848;BME280;75039;51.970;5.660;2024-02-21T07:48:11;101791.97;;;12.89;60.92
48848;BME280;75039;51.970;5.660;2024-02-21T07:50:38;101785.63;;;12.90;60.62
48848;BME280;75039;51.970;5.660;2024-02-21T07:53:06;101778.41;;;12.91;60.85
48848;BME280;75039;51.970;5.660;2024-02-21T07:55:32;101765.78;;;12.91;60.87
48848;BME280;75039;51.970;5.660;2024-02-21T07:57:59;101768.38;;;12.93;60.63
48848;BME280;75039;51.970;5.660;2024-02-21T08:00:25;101755.75;;;12.93;60.56
48848;BME280;75039;51.970;5.660;2024-02-21T08:02:52;101750.25;;;12.95;60.61
48848;BME280;75039;51.970;5.660;2024-02-21T08:05:19;101743.91;;;12.96;60.45
48848;BME280;75039;51.970;5.660;2024-02-21T08:07:46;101751.13;;;12.95;60.35
48848;BME280;75039;51.970;5.660;2024-02-21T08:10:14;101746.69;;;12.94;60.52
48848;BME280;75039;51.970;5.660;2024-02-21T08:12:41;101746.59;;;12.96;60.30
48848;BME280;75039;51.970;5.660;2024-02-21T08:15:09;101750.16;;;12.96;60.71
48848;BME280;75039;51.970;5.660;2024-02-21T08:17:37;101754.47;;;12.99;60.48
48848;BME280;75039;51.970;5.660;2024-02-21T08:20:04;101742.72;;;13.00;60.40
48848;BME280;75039;51.970;5.660;2024-02-21T08:22:31;101732.81;;;13.00;60.52
48848;BME280;75039;51.970;5.660;2024-02-21T08:24:58;101735.28;;;13.03;60.63
48848;BME280;75039;51.970;5.660;2024-02-21T08:27:25;101737.78;;;13.07;60.47
48848;BME280;75039;51.970;5.660;2024-02-21T08:29:52;101729.69;;;13.07;60.13
48848;BME280;75039;51.970;5.660;2024-02-21T08:32:19;101731.53;;;13.06;60.50
48848;BME280;75039;51.970;5.660;2024-02-21T08:34:46;101729.59;;;13.08;60.62
48848;BME280;75039;51.970;5.660;2024-02-21T08:37:13;101732.28;;;13.08;59.97
48848;BME280;75039;51.970;5.660;2024-02-21T08:39:40;101733.91;;;13.11;60.47
48848;BME280;75039;51.970;5.660;2024-02-21T08:42:07;101723.88;;;13.13;60.34
48848;BME280;75039;51.970;5.660;2024-02-21T08:44:34;101717.41;;;13.15;60.19
48848;BME280;75039;51.970;5.660;2024-02-21T08:47:00;101706.56;;;13.17;60.36
48848;BME280;75039;51.970;5.660;2024-02-21T08:49:31;101713.75;;;13.16;60.04
48848;BME280;75039;51.970;5.660;2024-02-21T08:52:01;101712.88;;;13.16;60.23
48848;BME280;75039;51.970;5.660;2024-02-21T08:54:30;101701.25;;;13.15;60.28
48848;BME280;75039;51.970;5.660;2024-02-21T08:56:56;101689.47;;;13.16;60.14
48848;BME280;75039;51.970;5.660;2024-02-21T08:59:23;101690.38;;;13.17;60.07
48848;BME280;75039;51.970;5.660;2024-02-21T09:01:51;101682.19;;;13.18;60.08
48848;BME280;75039;51.970;5.660;2024-02-21T09:04:19;101675.72;;;13.21;59.98
48848;BME280;75039;51.970;5.660;2024-02-21T09:06:46;101676.47;;;13.23;59.79
48848;BME280;75039;51.970;5.660;2024-02-21T09:09:13;101677.44;;;13.22;60.12
48848;BME280;75039;51.970;5.660;2024-02-21T09:11:39;101682.72;;;13.23;60.20
48848;BME280;75039;51.970;5.660;2024-02-21T09:14:07;101669.25;;;13.23;60.00
48848;BME280;75039;51.970;5.660;2024-02-21T09:16:34;101672.69;;;13.25;59.87
48848;BME280;75039;51.970;5.660;2024-02-21T09:19:01;101669.03;;;13.26;59.64
48848;BME280;75039;51.970;5.660;2024-02-21T09:21:28;101667.09;;;13.28;59.51
48848;BME280;75039;51.970;5.660;2024-02-21T09:23:55;101666.13;;;13.29;59.59
48848;BME280;75039;51.970;5.660;2024-02-21T09:26:25;101664.94;;;13.33;59.79
48848;BME280;75039;51.970;5.660;2024-02-21T09:28:52;101662.03;;;13.36;59.45
48848;BME280;75039;51.970;5.660;2024-02-21T09:31:19;101660.97;;;13.39;59.86
48848;BME280;75039;51.970;5.660;2024-02-21T09:33:46;101648.13;;;13.43;59.55
48848;BME280;75039;51.970;5.660;2024-02-21T09:36:13;101651.59;;;13.45;59.86
48848;BME280;75039;51.970;5.660;2024-02-21T09:38:40;101650.63;;;13.46;59.38
48848;BME280;75039;51.970;5.660;2024-02-21T09:41:25;101651.38;;;13.48;59.38
48848;BME280;75039;51.970;5.660;2024-02-21T09:43:52;101639.50;;;13.50;59.26
48848;BME280;75039;51.970;5.660;2024-02-21T09:46:39;101628.50;;;13.53;59.46
48848;BME280;75039;51.970;5.660;2024-02-21T09:49:25;101632.81;;;13.56;59.39
48848;BME280;75039;51.970;5.660;2024-02-21T09:51:57;101623.63;;;13.58;59.37
48848;BME280;75039;51.970;5.660;2024-02-21T09:54:28;101618.00;;;13.61;59.52
48848;BME280;75039;51.970;5.660;2024-02-21T09:56:54;101608.81;;;13.64;59.44
48848;BME280;75039;51.970;5.660;2024-02-21T09:59:23;101603.44;;;13.64;59.38
48848;BME280;75039;51.970;5.660;2024-02-21T10:01:50;101597.16;;;13.63;59.16
48848;BME280;75039;51.970;5.660;2024-02-21T10:04:18;101596.19;;;13.64;59.25
48848;BME280;75039;51.970;5.660;2024-02-21T10:06:46;101578.91;;;13.67;58.98
48848;BME280;75039;51.970;5.660;2024-02-21T10:09:42;101569.09;;;13.66;59.32
48848;BME280;75039;51.970;5.660;2024-02-21T10:12:12;101567.03;;;13.70;59.38
48848;BME280;75039;51.970;5.660;2024-02-21T10:14:40;101565.09;;;13.72;59.09
48848;BME280;75039;51.970;5.660;2024-02-21T10:17:08;101555.03;;;13.74;58.89
48848;BME280;75039;51.970;5.660;2024-02-21T10:19:37;101552.22;;;13.75;59.31
48848;BME280;75039;51.970;5.660;2024-02-21T10:22:10;101552.13;;;13.77;58.91
48848;BME280;75039;51.970;5.660;2024-02-21T10:24:37;101547.47;;;13.79;59.02
48848;BME280;75039;51.970;5.660;2024-02-21T10:27:08;101533.97;;;13.79;59.38
48848;BME280;75039;51.970;5.660;2024-02-21T10:29:37;101536.56;;;13.80;58.88
48848;BME280;75039;51.970;5.660;2024-02-21T10:32:14;101528.56;;;13.79;59.22
48848;BME280;75039;51.970;5.660;2024-02-21T10:34:42;101526.84;;;13.78;58.85
48848;BME280;75039;51.970;5.660;2024-02-21T10:37:11;101519.81;;;13.75;58.85
48848;BME280;75039;51.970;5.660;2024-02-21T10:39:40;101516.59;;;13.70;59.02
48848;BME280;75039;51.970;5.660;2024-02-21T10:42:07;101514.13;;;13.67;58.91
48848;BME280;75039;51.970;5.660;2024-02-21T10:44:38;101515.09;;;13.66;59.16
48848;BME280;75039;51.970;5.660;2024-02-21T10:47:11;101506.03;;;13.67;59.12
48848;BME280;75039;51.970;5.660;2024-02-21T10:49:41;101502.47;;;13.66;59.18
48848;BME280;75039;51.970;5.660;2024-02-21T10:52:20;101484.44;;;13.67;59.52
48848;BME280;75039;51.970;5.660;2024-02-21T10:55:04;101482.72;;;13.66;59.15
48848;BME280;75039;51.970;5.660;2024-02-21T10:57:37;101475.59;;;13.65;59.43
48848;BME280;75039;51.970;5.660;2024-02-21T11:00:05;101465.66;;;13.65;59.46
48848;BME280;75039;51.970;5.660;2024-02-21T11:02:34;101439.53;;;13.66;59.51
48848;BME280;75039;51.970;5.660;2024-02-21T11:05:02;101421.63;;;13.65;59.60
48848;BME280;75039;51.970;5.660;2024-02-21T11:07:31;101422.59;;;13.64;59.15
48848;BME280;75039;51.970;5.660;2024-02-21T11:09:59;101406.50;;;13.62;59.37
48848;BME280;75039;51.970;5.660;2024-02-21T11:12:26;101401.88;;;13.64;59.50
48848;BME280;75039;51.970;5.660;2024-02-21T11:15:05;101400.25;;;13.62;59.45
48848;BME280;75039;51.970;5.660;2024-02-21T11:17:36;101400.47;;;13.59;59.41
48848;BME280;75039;51.970;5.660;2024-02-21T11:20:15;101422.06;;;13.59;59.58
48848;BME280;75039;51.970;5.660;2024-02-21T11:22:43;101439.88;;;13.61;59.59
48848;BME280;75039;51.970;5.660;2024-02-21T11:25:10;101454.97;;;13.64;59.60
48848;BME280;75039;51.970;5.660;2024-02-21T11:27:45;101440.41;;;13.66;59.50
48848;BME280;75039;51.970;5.660;2024-02-21T11:30:12;101443.84;;;13.68;59.42
48848;BME280;75039;51.970;5.660;2024-02-21T11:32:40;101433.91;;;13.69;59.15
48848;BME280;75039;51.970;5.660;2024-02-21T11:35:08;101430.34;;;13.68;59.24
48848;BME280;75039;51.970;5.660;2024-02-21T11:37:36;101425.06;;;13.67;59.28
48848;BME280;75039;51.970;5.660;2024-02-21T11:40:07;101414.38;;;13.65;59.10
48848;BME280;75039;51.970;5.660;2024-02-21T11:42:39;101400.78;;;13.67;59.12
48848;BME280;75039;51.970;5.660;2024-02-21T11:45:06;101409.63;;;13.69;59.54
48848;BME280;75039;51.970;5.660;2024-02-21T11:47:36;101414.91;;;13.71;59.53
48848;BME280;75039;51.970;5.660;2024-02-21T11:50:10;101398.81;;;13.69;59.46
48848;BME280;75039;51.970;5.660;2024-02-21T11:52:39;101397.09;;;13.68;58.92
48848;BME280;75039;51.970;5.660;2024-02-21T11:55:06;101388.25;;;13.66;58.94
48848;BME280;75039;51.970;5.660;2024-02-21T11:57:37;101370.09;;;13.68;58.94
48848;BME280;75039;51.970;5.660;2024-02-21T12:00:15;101370.97;;;13.68;59.24
48848;BME280;75039;51.970;5.660;2024-02-21T12:02:44;101356.38;;;13.71;59.38
48848;BME280;75039;51.970;5.660;2024-02-21T12:05:12;101338.09;;;13.75;58.92
48848;BME280;75039;51.970;5.660;2024-02-21T12:07:39;101323.63;;;13.76;59.40
48848;BME280;75039;51.970;5.660;2024-02-21T12:10:11;101310.75;;;13.79;59.12
48848;BME280;75039;51.970;5.660;2024-02-21T12:12:39;101299.72;;;13.82;58.96
48848;BME280;75039;51.970;5.660;2024-02-21T12:15:07;101287.69;;;13.86;59.03
48848;BME280;75039;51.970;5.660;2024-02-21T12:17:37;101254.81;;;13.92;58.95
48848;BME280;75039;51.970;5.660;2024-02-21T12:20:05;101252.75;;;13.96;58.93
48848;BME280;75039;51.970;5.660;2024-02-21T12:22:32;101257.91;;;13.99;59.02
48848;BME280;75039;51.970;5.660;2024-02-21T12:24:59;101251.28;;;14.03;58.97
48848;BME280;75039;51.970;5.660;2024-02-21T12:27:26;101248.22;;;14.08;58.79
48848;BME280;75039;51.970;5.660;2024-02-21T12:29:53;101243.41;;;14.11;58.51
48848;BME280;75039;51.970;5.660;2024-02-21T12:32:19;101222.59;;;14.13;58.41
48848;BME280;75039;51.970;5.660;2024-02-21T12:34:46;101216.94;;;14.16;58.26
48848;BME280;75039;51.970;5.660;2024-02-21T12:37:22;101231.06;;;14.20;58.76
48848;BME280;75039;51.970;5.660;2024-02-21T12:39:48;101216.44;;;14.22;58.39
48848;BME280;75039;51.970;5.660;2024-02-21T12:42:15;101207.09;;;14.26;58.31
48848;BME280;75039;51.970;5.660;2024-02-21T12:44:42;101208.69;;;14.29;58.52
48848;BME280;75039;51.970;5.660;2024-02-21T12:47:10;101202.31;;;14.30;58.47
48848;BME280;75039;51.970;5.660;2024-02-21T12:49:37;101184.38;;;14.29;58.41
48848;BME280;75039;51.970;5.660;2024-02-21T12:52:09;101172.72;;;14.28;57.92
48848;BME280;75039;51.970;5.660;2024-02-21T12:54:36;101158.97;;;14.31;58.04